Time;durP1;ratioP1;P1;durP2;ratioP2;P2;SDS_P1;SDS_P2;PMS_P1;PMS_P2;Temp;Humidity;BMP_temperature;BMP_pressure;BME280_temperature;BME280_humidity;BME280_pressure;Samples;Min_cycle;Max_cycle;Signal;HPM_P1;HPM_P2
2020/12/09 00:01:46;;;;;;;4.47;1.08;;;25.40;80.90;;;;;;5035508;28;20435;-46
2020/12/09 00:04:15;;;;;;;5.25;1.13;;;25.10;81.30;;;;;;5052837;28;20072;-48
2020/12/09 00:06:43;;;;;;;6.97;1.40;;;24.60;82.40;;;;;;5052864;28;20029;-49
2020/12/09 00:09:17;;;;;;;7.78;1.10;;;24.40;83.80;;;;;;5053383;28;20021;-50
2020/12/09 00:11:45;;;;;;;3.88;1.23;;;24.10;83.30;;;;;;5052283;28;20021;-47
2020/12/09 00:14:13;;;;;;;7.65;1.48;;;23.90;84.60;;;;;;5053073;28;20029;-48
2020/12/09 00:16:41;;;;;;;4.68;1.27;;;23.90;85.90;;;;;;5018075;28;20402;-49
2020/12/09 00:19:09;;;;;;;5.18;1.33;;;24.20;87.70;;;;;;5053247;28;20477;-47
2020/12/09 00:21:38;;;;;;;7.10;1.20;;;24.60;86.00;;;;;;5052887;28;20075;-47
2020/12/09 00:24:06;;;;;;;7.05;1.17;;;25.10;84.10;;;;;;5052774;28;20048;-46
2020/12/09 00:26:35;;;;;;;8.27;1.60;;;25.60;84.20;;;;;;5052864;28;20108;-48
2020/12/09 00:29:05;;;;;;;7.18;1.30;;;25.80;83.10;;;;;;5052108;28;20090;-47
2020/12/09 00:31:34;;;;;;;5.63;1.23;;;25.80;83.30;;;;;;5052208;28;20017;-48
2020/12/09 00:34:03;;;;;;;9.95;1.48;;;25.50;83.10;;;;;;5052408;28;20049;-48
2020/12/09 00:36:31;;;;;;;8.57;1.92;;;25.10;83.40;;;;;;5017200;28;20033;-52
2020/12/09 00:38:59;;;;;;;6.55;1.20;;;25.10;83.10;;;;;;5052614;28;20354;-47
2020/12/09 00:41:29;;;;;;;3.30;0.95;;;25.20;84.70;;;;;;5053039;28;20025;-48
2020/12/09 00:43:58;;;;;;;6.70;1.90;;;25.60;85.20;;;;;;5052812;28;20025;-48
2020/12/09 00:46:28;;;;;;;7.32;1.50;;;25.70;83.00;;;;;;5053041;28;20382;-49
2020/12/09 00:48:57;;;;;;;6.97;1.45;;;25.50;83.50;;;;;;5052406;28;20044;-48
2020/12/09 00:51:26;;;;;;;6.60;1.25;;;25.50;84.20;;;;;;5052098;28;20033;-50
2020/12/09 00:53:54;;;;;;;8.45;1.38;;;25.50;83.70;;;;;;5052106;28;20029;-56
2020/12/09 00:56:22;;;;;;;5.07;1.73;;;25.70;83.20;;;;;;5051921;28;20107;-53
2020/12/09 00:58:50;;;;;;;5.55;1.23;;;25.70;82.20;;;;;;5052018;28;20035;-53
2020/12/09 01:01:18;;;;;;;4.53;1.42;;;25.60;83.70;;;;;;5052102;28;20033;-50
2020/12/09 01:03:46;;;;;;;5.47;1.10;;;25.60;84.10;;;;;;5051508;28;20041;-52
2020/12/09 01:06:14;;;;;;;6.05;1.08;;;25.80;83.70;;;;;;5051978;28;20040;-51
2020/12/09 01:08:43;;;;;;;6.72;1.25;;;26.00;82.00;;;;;;5051709;28;20028;-49
2020/12/09 01:11:11;;;;;;;8.52;1.67;;;26.10;82.70;;;;;;5051909;28;20104;-51
2020/12/09 01:13:58;;;;;;;5.97;1.33;;;26.30;82.80;;;;;;5051696;28;20031;-47
2020/12/09 01:16:26;;;;;;;6.75;1.45;;;26.40;80.50;;;;;;5034413;28;20484;-51
2020/12/09 01:18:54;;;;;;;6.38;1.38;;;26.40;81.30;;;;;;5051964;28;20108;-51
2020/12/09 01:21:30;;;;;;;6.07;1.40;;;26.30;80.80;;;;;;5051704;28;20033;-48
2020/12/09 01:23:59;;;;;;;4.60;1.17;;;26.20;81.90;;;;;;5053953;28;20025;-47
2020/12/09 01:26:28;;;;;;;6.80;1.65;;;26.20;81.40;;;;;;5020319;28;20108;-47
2020/12/09 01:28:56;;;;;;;4.20;1.35;;;26.20;82.30;;;;;;5055372;28;20104;-49
2020/12/09 01:31:24;;;;;;;9.30;1.38;;;26.20;82.70;;;;;;5055442;28;20025;-50
2020/12/09 01:33:52;;;;;;;5.47;1.30;;;26.00;82.10;;;;;;5055637;28;20131;-51
2020/12/09 01:36:24;;;;;;;4.35;1.40;;;26.00;83.20;;;;;;5055267;28;20104;-51
2020/12/09 01:38:53;;;;;;;7.53;1.80;;;26.10;83.60;;;;;;5037193;28;20033;-48
2020/12/09 01:41:23;;;;;;;6.15;1.45;;;26.10;83.20;;;;;;5054970;28;20025;-48
2020/12/09 01:43:53;;;;;;;7.25;1.75;;;25.90;83.70;;;;;;5055247;28;20404;-50
2020/12/09 01:46:29;;;;;;;6.15;1.20;;;25.80;84.20;;;;;;5055098;28;20025;-52
2020/12/09 01:48:58;;;;;;;5.18;1.50;;;26.00;84.20;;;;;;5055387;28;20025;-47
2020/12/09 01:51:28;;;;;;;5.72;1.50;;;26.20;82.50;;;;;;5004578;28;20060;-51
2020/12/09 01:53:59;;;;;;;4.60;1.15;;;26.30;82.80;;;;;;5054904;28;20059;-52
2020/12/09 01:56:27;;;;;;;;;;;26.00;84.00;;;;;;5037711;28;20086;-50
2020/12/09 01:58:55;;;;;;;6.90;1.48;;;25.90;84.20;;;;;;5055028;28;19909;-51
2020/12/09 02:01:24;;;;;;;5.57;1.27;;;25.60;84.90;;;;;;5055042;28;20029;-52
2020/12/09 02:03:52;;;;;;;3.67;0.98;;;25.60;84.80;;;;;;5054459;28;20124;-52
2020/12/09 02:06:21;;;;;;;6.78;1.25;;;25.60;84.70;;;;;;5054898;28;20025;-48
2020/12/09 02:08:49;;;;;;;8.90;1.40;;;25.80;84.10;;;;;;5020387;28;20067;-51
2020/12/09 02:11:17;;;;;;;4.15;1.00;;;26.10;84.90;;;;;;5054591;28;20354;-49
2020/12/09 02:13:46;;;;;;;4.45;1.30;;;26.40;84.20;;;;;;5054675;28;20100;-52
2020/12/09 02:16:17;;;;;;;7.10;1.70;;;26.50;82.90;;;;;;5055039;28;20031;-52
2020/12/09 02:18:46;;;;;;;4.88;1.02;;;26.40;84.40;;;;;;5054618;28;20024;-50
2020/12/09 02:21:14;;;;;;;5.97;1.10;;;26.30;83.90;;;;;;5054255;28;20055;-49
2020/12/09 02:23:42;;;;;;;5.00;1.08;;;26.50;83.80;;;;;;5054594;28;20441;-52
2020/12/09 02:26:10;;;;;;;6.13;1.10;;;26.40;82.70;;;;;;5055201;28;20053;-49
2020/12/09 02:28:38;;;;;;;6.45;1.15;;;26.20;82.80;;;;;;5054450;28;20021;-53
2020/12/09 02:31:06;;;;;;;4.90;1.20;;;26.10;84.10;;;;;;5054642;28;20017;-48
2020/12/09 02:33:35;;;;;;;4.55;1.27;;;26.20;85.50;;;;;;5054657;28;20037;-50
2020/12/09 02:36:04;;;;;;;6.55;1.30;;;26.20;84.70;;;;;;5019029;28;20463;-48
2020/12/09 02:38:33;;;;;;;6.05;1.20;;;26.10;84.40;;;;;;5019468;28;20033;-48
2020/12/09 02:41:01;;;;;;;5.78;1.88;;;26.20;84.00;;;;;;5054249;28;20078;-52
2020/12/09 02:43:30;;;;;;;3.22;1.10;;;26.30;84.00;;;;;;5054117;28;20492;-48
2020/12/09 02:45:58;;;;;;;6.47;1.30;;;26.30;84.70;;;;;;5054035;28;20060;-51
2020/12/09 02:48:26;;;;;;;6.93;1.88;;;26.30;84.90;;;;;;5053888;28;20052;-49
2020/12/09 02:50:57;;;;;;;7.38;1.45;;;26.50;85.50;;;;;;5036465;28;20040;-47
2020/12/09 02:53:25;;;;;;;6.13;1.30;;;26.20;84.60;;;;;;5002929;28;20116;-47
2020/12/09 02:55:52;;;;;;;7.80;1.67;;;26.40;84.20;;;;;;5036663;28;20033;-49
2020/12/09 02:58:20;;;;;;;7.43;1.52;;;26.40;84.80;;;;;;5036545;28;20029;-49
2020/12/09 03:00:48;;;;;;;5.70;1.10;;;26.00;84.30;;;;;;5054207;28;20033;-47
2020/12/09 03:03:16;;;;;;;6.00;1.35;;;25.90;84.80;;;;;;5053702;28;20033;-51
2020/12/09 03:05:44;;;;;;;4.82;1.35;;;26.10;86.30;;;;;;5053717;28;20095;-48
2020/12/09 03:08:12;;;;;;;4.93;1.10;;;26.40;85.40;;;;;;5053681;28;20432;-47
2020/12/09 03:10:40;;;;;;;5.45;1.30;;;26.40;83.90;;;;;;5053573;28;20024;-49
2020/12/09 03:13:08;;;;;;;9.00;1.40;;;26.40;84.90;;;;;;5053721;28;20037;-48
2020/12/09 03:15:36;;;;;;;8.10;1.70;;;26.50;84.50;;;;;;5053470;28;20509;-52
2020/12/09 03:18:04;;;;;;;6.15;1.30;;;26.60;83.70;;;;;;5053647;28;20476;-49
2020/12/09 03:20:32;;;;;;;3.22;1.00;;;26.80;83.70;;;;;;5053079;28;20031;-49
2020/12/09 03:23:00;;;;;;;6.32;1.27;;;26.90;83.00;;;;;;5053114;28;20074;-47
2020/12/09 03:25:28;;;;;;;8.63;1.58;;;27.10;82.60;;;;;;5053433;28;20017;-49
2020/12/09 03:27:56;;;;;;;8.05;1.13;;;26.90;83.00;;;;;;5053279;28;20116;-49
2020/12/09 03:30:24;;;;;;;6.82;1.25;;;26.50;83.70;;;;;;5053204;28;20029;-49
2020/12/09 03:32:52;;;;;;;2.85;0.98;;;26.30;83.30;;;;;;5052956;28;20059;-51
2020/12/09 03:35:20;;;;;;;6.40;1.15;;;26.30;84.30;;;;;;5053235;28;20021;-49
2020/12/09 03:37:48;;;;;;;4.47;1.35;;;26.10;84.10;;;;;;5053249;28;20461;-50
2020/12/09 03:40:16;;;;;;;7.90;1.67;;;26.10;84.40;;;;;;5052900;28;20117;-50
2020/12/09 03:42:44;;;;;;;5.15;1.30;;;26.10;84.40;;;;;;5052598;28;20029;-51
2020/12/09 03:45:12;;;;;;;5.97;1.20;;;26.00;83.50;;;;;;5018149;28;20033;-52
2020/12/09 03:47:41;;;;;;;5.20;1.00;;;25.90;84.00;;;;;;5051762;28;20031;-49
2020/12/09 03:50:09;;;;;;;6.03;1.02;;;26.10;83.50;;;;;;5018003;28;20500;-49
2020/12/09 03:52:37;;;;;;;5.22;1.10;;;26.10;83.50;;;;;;5052503;28;20025;-50
2020/12/09 03:55:05;;;;;;;5.70;1.10;;;26.10;84.50;;;;;;5052786;28;20108;-49
2020/12/09 03:57:33;;;;;;;5.47;1.45;;;26.30;83.50;;;;;;5052812;28;20377;-49
2020/12/09 04:00:01;;;;;;;5.93;1.52;;;26.10;83.20;;;;;;5001521;28;20391;-46
2020/12/09 04:02:29;;;;;;;6.47;1.20;;;26.00;84.70;;;;;;5052432;28;20408;-53
2020/12/09 04:04:57;;;;;;;7.63;1.55;;;26.10;83.80;;;;;;5052188;28;20542;-52
2020/12/09 04:07:25;;;;;;;5.88;1.30;;;26.20;84.40;;;;;;5052768;28;20017;-50
2020/12/09 04:09:52;;;;;;;7.30;1.88;;;26.20;84.00;;;;;;5035101;28;20096;-49
2020/12/09 04:12:23;;;;;;;6.40;1.30;;;26.50;84.80;;;;;;5052539;28;20086;-46
2020/12/09 04:14:51;;;;;;;;;;;26.40;83.50;;;;;;5052961;28;20040;-48
2020/12/09 04:17:20;;;;;;;6.05;1.77;;;26.50;84.20;;;;;;5052004;28;19912;-49
2020/12/09 04:19:48;;;;;;;6.10;1.45;;;26.30;84.70;;;;;;5052367;28;20025;-47
2020/12/09 04:22:17;;;;;;;6.40;1.27;;;26.10;84.80;;;;;;5052274;28;20025;-51
2020/12/09 04:24:45;;;;;;;3.75;0.90;;;26.20;85.20;;;;;;5034628;28;20075;-51
2020/12/09 04:27:13;;;;;;;7.07;1.35;;;26.50;84.90;;;;;;5051920;28;20025;-51
2020/12/09 04:29:41;;;;;;;5.20;1.35;;;26.30;84.10;;;;;;5052279;28;20061;-52
2020/12/09 04:32:09;;;;;;;4.50;1.13;;;26.30;84.40;;;;;;5052355;28;20354;-52
2020/12/09 04:34:38;;;;;;;5.45;1.30;;;26.10;84.70;;;;;;5052270;28;20021;-52
2020/12/09 04:37:08;;;;;;;6.40;1.50;;;25.80;85.10;;;;;;5052221;28;20029;-51
2020/12/09 04:39:36;;;;;;;7.03;1.40;;;25.90;85.10;;;;;;5052375;28;20071;-51
2020/12/09 04:42:05;;;;;;;3.42;1.15;;;26.10;84.10;;;;;;5052138;28;20048;-47
2020/12/09 04:44:34;;;;;;;4.85;1.00;;;26.10;82.10;;;;;;5052169;28;20208;-51
2020/12/09 04:47:05;;;;;;;4.20;1.05;;;26.00;84.20;;;;;;5052105;28;20075;-49
2020/12/09 04:49:47;;;;;;;4.25;1.10;;;26.00;83.70;;;;;;5052325;28;20107;-51
2020/12/09 04:52:26;;;;;;;5.85;1.27;;;26.10;84.70;;;;;;5052225;28;20047;-51
2020/12/09 04:55:05;;;;;;;5.57;1.23;;;26.30;84.50;;;;;;5051858;28;20017;-50
2020/12/09 04:58:07;;;;;;;7.65;1.13;;;26.40;83.50;;;;;;5052382;28;20469;-49
2020/12/09 05:00:39;;;;;;;5.88;1.70;;;26.40;85.10;;;;;;5055681;28;20178;-51
2020/12/09 05:03:15;;;;;;;9.05;1.70;;;26.60;81.40;;;;;;5055695;28;20032;-51
2020/12/09 05:05:44;;;;;;;7.18;1.90;;;26.50;82.40;;;;;;5056118;28;20025;-49
2020/12/09 05:08:19;;;;;;;4.05;1.10;;;26.50;83.10;;;;;;5055647;28;20028;-50
2020/12/09 05:10:53;;;;;;;7.05;1.38;;;26.40;83.20;;;;;;5055725;28;20032;-50
2020/12/09 05:13:26;;;;;;;3.95;1.17;;;26.40;82.90;;;;;;5055534;28;20055;-51
2020/12/09 05:15:58;;;;;;;6.20;1.10;;;26.40;81.80;;;;;;5055774;28;20091;-51
2020/12/09 05:18:42;;;;;;;5.28;1.55;;;26.50;82.60;;;;;;5055401;28;20035;-52
2020/12/09 05:21:14;;;;;;;6.15;1.20;;;26.40;81.70;;;;;;5055229;28;20060;-50
2020/12/09 05:23:48;;;;;;;6.05;1.10;;;26.10;82.80;;;;;;5055620;28;20025;-50
2020/12/09 05:26:31;;;;;;;4.00;1.42;;;26.20;85.00;;;;;;5055355;28;20041;-50
2020/12/09 05:29:19;;;;;;;4.07;1.25;;;26.20;83.40;;;;;;5055413;28;20108;-50
2020/12/09 05:31:49;;;;;;;4.85;1.42;;;26.10;83.50;;;;;;5013348;28;20026;-51
2020/12/09 05:34:22;;;;;;;;;;;26.10;83.70;;;;;;5013681;28;20394;-48
2020/12/09 05:36:56;;;;;;;5.40;1.40;;;26.10;84.30;;;;;;5013275;28;19989;-51
2020/12/09 05:39:25;;;;;;;6.78;1.33;;;26.30;82.70;;;;;;5013159;28;20456;-47
2020/12/09 05:41:54;;;;;;;4.68;1.13;;;26.20;83.60;;;;;;5013238;28;20056;-47
2020/12/09 05:44:24;;;;;;;7.13;1.23;;;26.10;83.70;;;;;;5013065;28;20026;-52
2020/12/09 05:47:11;;;;;;;6.20;1.27;;;26.10;85.70;;;;;;5013052;28;20038;-50
2020/12/09 05:49:40;;;;;;;5.65;1.30;;;25.90;85.00;;;;;;4974004;28;20373;-48
2020/12/09 05:52:22;;;;;;;4.63;1.20;;;26.10;84.30;;;;;;4973919;28;20031;-48
2020/12/09 05:54:52;;;;;;;6.75;1.40;;;26.20;83.80;;;;;;4973733;28;20097;-47
2020/12/09 05:57:26;;;;;;;6.93;1.38;;;26.20;83.90;;;;;;4974067;28;20035;-48
2020/12/09 05:59:54;;;;;;;7.03;1.40;;;26.10;83.70;;;;;;4973830;28;20081;-50
2020/12/09 06:02:24;;;;;;;5.90;1.20;;;25.90;85.50;;;;;;4987821;28;20050;-50
2020/12/09 06:04:59;;;;;;;4.45;1.00;;;25.90;85.20;;;;;;5012434;28;20435;-48
2020/12/09 06:07:32;;;;;;;4.80;1.10;;;25.90;85.00;;;;;;4996681;28;20029;-48
2020/12/09 06:10:20;;;;;;;5.80;1.17;;;25.90;84.00;;;;;;5011629;28;20046;-50
2020/12/09 06:13:07;;;;;;;8.30;1.58;;;26.10;85.50;;;;;;5012816;28;20033;-52
2020/12/09 06:15:35;;;;;;;8.73;1.20;;;25.80;85.40;;;;;;5012471;28;20438;-50
2020/12/09 06:18:11;;;;;;;4.93;1.40;;;25.90;84.30;;;;;;5012519;28;20030;-50
2020/12/09 06:20:42;;;;;;;8.20;1.42;;;26.00;85.40;;;;;;5034505;28;20032;-47
2020/12/09 06:23:14;;;;;;;4.60;1.20;;;26.00;86.10;;;;;;5054592;28;20111;-49
2020/12/09 06:25:43;;;;;;;6.85;1.50;;;26.20;86.20;;;;;;5054585;28;20440;-47
2020/12/09 06:28:17;;;;;;;6.43;1.40;;;26.40;86.30;;;;;;5054342;28;20032;-50
2020/12/09 06:30:46;;;;;;;5.78;1.58;;;26.50;85.30;;;;;;5054292;28;20017;-47
2020/12/09 06:33:28;;;;;;;6.07;1.70;;;26.60;84.50;;;;;;5053982;28;20426;-47
2020/12/09 06:36:16;;;;;;;5.95;1.40;;;26.50;85.00;;;;;;5019189;28;20040;-47
2020/12/09 06:39:15;;;;;;;6.70;1.90;;;26.50;84.20;;;;;;4979386;28;20196;-47
2020/12/09 06:42:06;;;;;;;6.85;1.40;;;26.70;83.50;;;;;;4973140;28;20042;-47
2020/12/09 06:44:48;;;;;;;5.13;1.25;;;26.90;82.70;;;;;;4972798;28;20042;-48
2020/12/09 06:47:18;;;;;;;6.00;1.35;;;26.80;82.90;;;;;;4941054;28;20037;-51
2020/12/09 06:49:45;;;;;;;;;;;26.80;82.90;;;;;;4973098;28;20487;-51
2020/12/09 06:52:33;;;;;;;5.93;1.50;;;26.70;82.10;;;;;;4972709;28;19906;-49
2020/12/09 06:55:03;;;;;;;7.25;1.02;;;26.60;81.20;;;;;;4972834;28;20030;-49
2020/12/09 06:57:37;;;;;;;3.42;1.00;;;26.50;82.80;;;;;;4972749;28;20060;-49
2020/12/09 07:00:16;;;;;;;7.88;1.63;;;26.70;83.90;;;;;;4972679;28;20035;-51
2020/12/09 07:02:46;;;;;;;4.55;1.20;;;27.00;83.40;;;;;;4972442;28;20118;-51
2020/12/09 07:05:28;;;;;;;5.93;1.20;;;27.20;83.70;;;;;;4972413;28;20055;-49
2020/12/09 07:08:06;;;;;;;5.38;1.30;;;26.90;82.80;;;;;;4972522;28;20113;-50
2020/12/09 07:10:35;;;;;;;10.57;1.95;;;26.40;84.20;;;;;;5006681;28;20065;-51
2020/12/09 07:13:12;;;;;;;5.13;1.40;;;25.90;85.20;;;;;;5012805;28;20433;-52
2020/12/09 07:15:47;;;;;;;7.82;1.55;;;25.10;87.60;;;;;;5011977;28;20441;-49
2020/12/09 07:18:15;;;;;;;5.30;1.30;;;24.70;88.90;;;;;;5013188;28;20053;-50
2020/12/09 07:20:46;;;;;;;5.05;1.30;;;24.30;89.80;;;;;;4980289;28;20038;-50
2020/12/09 07:23:15;;;;;;;5.05;1.30;;;23.90;90.40;;;;;;5012665;28;20081;-48
2020/12/09 07:25:43;;;;;;;7.20;1.80;;;23.60;91.20;;;;;;5014114;28;20026;-52
2020/12/09 07:28:12;;;;;;;9.82;1.58;;;23.60;92.00;;;;;;4980080;28;20371;-51
2020/12/09 07:30:40;;;;;;;8.32;2.03;;;23.50;92.30;;;;;;5013897;28;20397;-47
2020/12/09 07:33:08;;;;;;;9.07;1.90;;;23.50;92.70;;;;;;5014049;28;20528;-48
2020/12/09 07:35:36;;;;;;;8.05;1.95;;;23.40;92.90;;;;;;4995425;28;20045;-48
2020/12/09 07:38:05;;;;;;;7.63;1.95;;;23.30;92.90;;;;;;5014083;28;20120;-50
2020/12/09 07:40:35;;;;;;;5.35;2.03;;;23.20;93.20;;;;;;5013502;28;20033;-46
2020/12/09 07:43:11;;;;;;;7.90;2.50;;;23.30;93.50;;;;;;5011270;28;20128;-47
2020/12/09 07:45:44;;;;;;;9.35;3.95;;;23.20;93.80;;;;;;5013044;28;20083;-46
2020/12/09 07:48:14;;;;;;;6.07;1.73;;;23.20;93.40;;;;;;5013420;28;20022;-47
2020/12/09 07:50:49;;;;;;;6.32;1.52;;;23.20;93.10;;;;;;5012986;28;20033;-45
2020/12/09 07:53:18;;;;;;;8.52;1.52;;;23.20;93.40;;;;;;5013128;28;20359;-50
2020/12/09 07:55:46;;;;;;;12.15;1.70;;;23.40;93.30;;;;;;5013113;28;20129;-51
2020/12/09 07:58:17;;;;;;;12.65;2.45;;;23.40;93.70;;;;;;5012869;28;20037;-48
2020/12/09 08:00:50;;;;;;;9.13;1.92;;;23.20;93.90;;;;;;5012839;28;20124;-45
2020/12/09 08:03:21;;;;;;;10.25;2.08;;;23.20;93.40;;;;;;4982028;28;20038;-47
2020/12/09 08:05:49;;;;;;;5.00;1.58;;;23.10;94.00;;;;;;5052814;28;20452;-47
2020/12/09 08:08:24;;;;;;;8.57;2.10;;;22.80;94.70;;;;;;5052759;28;20109;-50
2020/12/09 08:10:53;;;;;;;10.32;1.70;;;22.60;95.10;;;;;;5018028;28;20060;-49
2020/12/09 08:13:25;;;;;;;7.50;1.65;;;22.30;95.40;;;;;;5052240;28;20398;-48
2020/12/09 08:16:13;;;;;;;6.95;1.40;;;22.10;95.50;;;;;;5052467;28;20454;-48
2020/12/09 08:18:43;;;;;;;8.70;1.95;;;21.90;96.00;;;;;;5010425;28;20545;-50
2020/12/09 08:21:12;;;;;;;8.90;2.05;;;21.70;96.90;;;;;;5010303;28;20089;-48
2020/12/09 08:23:46;;;;;;;6.93;1.92;;;21.60;97.60;;;;;;5010602;28;20120;-46
2020/12/09 08:26:29;;;;;;;6.82;1.75;;;21.50;97.90;;;;;;4962249;28;20172;-48
2020/12/09 08:28:58;;;;;;;5.60;2.03;;;21.40;98.80;;;;;;5010114;28;20073;-46
2020/12/09 08:31:26;;;;;;;11.20;2.28;;;21.30;99.40;;;;;;5010295;28;20034;-49
2020/12/09 08:33:55;;;;;;;7.65;1.98;;;21.20;99.70;;;;;;5011954;28;20121;-51
2020/12/09 08:36:26;;;;;;;11.27;2.30;;;21.10;99.90;;;;;;5014264;28;20108;-48
2020/12/09 08:39:01;;;;;;;7.68;1.80;;;21.10;99.90;;;;;;5014268;28;20065;-48
2020/12/09 08:41:31;;;;;;;7.85;1.75;;;21.10;99.90;;;;;;5014298;28;20041;-48
2020/12/09 08:44:01;;;;;;;5.90;1.77;;;21.10;99.90;;;;;;5014136;28;20038;-51
2020/12/09 08:46:30;;;;;;;7.03;2.03;;;20.90;99.90;;;;;;5014150;28;20431;-47
2020/12/09 08:48:59;;;;;;;8.55;1.55;;;20.90;99.90;;;;;;5023794;28;20057;-50
2020/12/09 08:51:29;;;;;;;6.07;1.60;;;20.80;99.90;;;;;;5056303;28;20032;-47
2020/12/09 08:53:59;;;;;;;6.78;2.08;;;20.90;99.90;;;;;;5055952;28;20033;-49
2020/12/09 08:56:33;;;;;;;9.98;1.98;;;20.80;99.90;;;;;;5056104;28;20033;-48
2020/12/09 08:59:01;;;;;;;8.48;1.70;;;20.70;99.90;;;;;;5037965;28;20028;-52
2020/12/09 09:01:35;;;;;;;8.30;2.95;;;20.70;99.90;;;;;;5055906;28;20033;-50
2020/12/09 09:04:07;;;;;;;10.02;1.70;;;20.70;99.90;;;;;;5055466;28;20041;-49
2020/12/09 09:06:36;;;;;;;8.35;2.08;;;20.70;99.90;;;;;;5055735;28;20025;-48
2020/12/09 09:09:04;;;;;;;7.22;1.70;;;20.60;99.90;;;;;;5055697;28;20447;-49
2020/12/09 09:11:33;;;;;;;8.35;1.98;;;20.60;99.90;;;;;;5055524;28;20102;-48
2020/12/09 09:14:01;;;;;;;13.00;1.88;;;20.60;99.90;;;;;;5055700;28;20040;-50
2020/12/09 09:16:29;;;;;;;7.63;1.65;;;20.50;99.90;;;;;;5055403;28;20112;-50
2020/12/09 09:18:57;;;;;;;8.75;1.80;;;20.50;99.90;;;;;;5055358;28;20075;-51
2020/12/09 09:21:25;;;;;;;7.35;1.75;;;20.50;99.90;;;;;;5020470;28;20041;-50
2020/12/09 09:23:53;;;;;;;10.40;1.77;;;20.50;99.90;;;;;;5055304;28;20028;-47
2020/12/09 09:26:21;;;;;;;7.20;1.58;;;20.40;99.90;;;;;;5055389;28;20370;-52
2020/12/09 09:28:50;;;;;;;6.50;1.50;;;20.40;99.90;;;;;;5055237;28;20018;-51
2020/12/09 09:31:17;;;;;;;11.10;2.17;;;20.50;99.90;;;;;;5055109;28;20100;-50
2020/12/09 09:33:45;;;;;;;8.00;1.70;;;20.40;99.90;;;;;;5055093;28;20500;-51
2020/12/09 09:36:13;;;;;;;6.55;1.67;;;20.40;99.90;;;;;;5055214;28;20025;-52
2020/12/09 09:38:41;;;;;;;7.75;1.52;;;20.30;99.90;;;;;;5055340;28;20064;-51
2020/12/09 09:41:09;;;;;;;8.10;1.60;;;20.30;99.90;;;;;;5055048;28;20063;-48
2020/12/09 09:43:37;;;;;;;5.63;1.50;;;20.30;99.90;;;;;;5055145;28;20098;-49
2020/12/09 09:46:05;;;;;;;6.10;1.38;;;20.30;99.90;;;;;;5054761;28;20078;-52
2020/12/09 09:48:33;;;;;;;5.80;1.60;;;20.30;99.90;;;;;;5055165;28;20021;-53
2020/12/09 09:51:02;;;;;;;7.20;1.92;;;20.30;99.90;;;;;;5054750;28;20036;-49
2020/12/09 09:53:29;;;;;;;6.68;1.48;;;20.40;99.90;;;;;;5054928;28;20045;-51
2020/12/09 09:55:57;;;;;;;6.20;1.90;;;20.40;99.90;;;;;;5054912;28;20033;-50
2020/12/09 09:58:26;;;;;;;6.85;1.63;;;20.40;99.90;;;;;;5054893;28;20120;-51
2020/12/09 10:00:53;;;;;;;7.55;1.55;;;20.30;99.90;;;;;;5054638;28;20029;-50
2020/12/09 10:03:21;;;;;;;5.38;1.42;;;20.30;99.90;;;;;;5054269;28;20026;-50
2020/12/09 10:05:52;;;;;;;8.40;1.85;;;20.20;99.90;;;;;;5054869;28;20032;-51
2020/12/09 10:08:21;;;;;;;8.63;1.83;;;20.20;99.90;;;;;;5055028;28;20118;-52
2020/12/09 10:10:49;;;;;;;7.07;1.45;;;20.20;99.90;;;;;;5054767;28;20412;-51
2020/12/09 10:13:17;;;;;;;11.85;2.22;;;20.20;99.90;;;;;;5054804;28;20424;-49
2020/12/09 10:15:45;;;;;;;7.82;2.40;;;20.20;99.90;;;;;;5019532;28;20045;-50
2020/12/09 10:18:13;;;;;;;11.50;2.40;;;20.20;99.90;;;;;;5054428;28;20031;-53
2020/12/09 10:20:41;;;;;;;7.20;1.48;;;20.20;99.90;;;;;;5054576;28;20473;-52
2020/12/09 10:23:09;;;;;;;8.93;2.28;;;20.20;99.90;;;;;;5019339;28;20135;-52
2020/12/09 10:25:37;;;;;;;7.70;1.75;;;20.20;99.90;;;;;;5054408;28;20021;-50
2020/12/09 10:28:05;;;;;;;6.43;1.58;;;20.20;99.90;;;;;;5054395;28;20542;-52
2020/12/09 10:30:33;;;;;;;11.02;1.83;;;20.20;99.90;;;;;;5054204;28;20048;-50
2020/12/09 10:33:01;;;;;;;6.72;1.70;;;20.20;99.90;;;;;;5054117;28;20044;-51
2020/12/09 10:35:29;;;;;;;9.95;1.75;;;20.20;99.90;;;;;;5054546;28;20056;-53
2020/12/09 10:37:57;;;;;;;7.90;1.85;;;20.20;99.90;;;;;;5054223;28;20440;-50
2020/12/09 10:40:24;;;;;;;8.48;1.90;;;20.10;99.90;;;;;;5053745;28;20209;-51
2020/12/09 10:42:52;;;;;;;7.75;1.60;;;20.10;99.90;;;;;;5053799;28;20108;-51
2020/12/09 10:45:20;;;;;;;10.35;2.03;;;20.10;99.90;;;;;;5054075;28;20021;-48
2020/12/09 10:47:48;;;;;;;13.10;1.80;;;20.10;99.90;;;;;;5053401;28;20025;-50
2020/12/09 10:50:17;;;;;;;7.70;1.75;;;20.00;99.90;;;;;;5053984;28;20151;-50
2020/12/09 10:52:44;;;;;;;7.68;2.25;;;20.00;99.90;;;;;;5053841;28;20407;-49
2020/12/09 10:55:12;;;;;;;10.77;2.13;;;20.00;99.90;;;;;;5053725;28;20035;-50
2020/12/09 10:57:40;;;;;;;8.77;2.00;;;20.00;99.90;;;;;;5053147;28;20036;-51
2020/12/09 11:00:08;;;;;;;8.30;2.13;;;20.00;99.90;;;;;;5053419;28;20033;-51
2020/12/09 11:02:36;;;;;;;13.95;2.25;;;20.00;99.90;;;;;;5053257;28;20033;-48
2020/12/09 11:05:04;;;;;;;13.02;2.05;;;19.90;99.90;;;;;;5053439;28;20116;-51
2020/12/09 11:07:32;;;;;;;8.80;2.28;;;19.90;99.90;;;;;;5053230;28;20025;-49
2020/12/09 11:10:00;;;;;;;7.57;1.90;;;20.10;99.90;;;;;;5053426;28;20469;-52
2020/12/09 11:12:28;;;;;;;6.15;1.95;;;20.00;99.90;;;;;;5053312;28;20397;-50
2020/12/09 11:14:57;;;;;;;10.68;2.75;;;20.00;99.90;;;;;;5035530;28;20017;-52
2020/12/09 11:17:25;;;;;;;11.18;1.90;;;19.90;99.90;;;;;;5053374;28;20025;-51
2020/12/09 11:19:53;;;;;;;7.35;1.75;;;19.90;99.90;;;;;;5053170;28;20025;-51
2020/12/09 11:22:21;;;;;;;5.78;1.50;;;19.90;99.90;;;;;;5053212;28;20024;-49
2020/12/09 11:24:49;;;;;;;7.18;1.70;;;19.90;99.90;;;;;;5053423;28;20465;-52
2020/12/09 11:27:17;;;;;;;9.55;2.17;;;19.80;99.90;;;;;;5018243;28;20065;-52
2020/12/09 11:29:46;;;;;;;8.10;1.77;;;19.80;99.90;;;;;;5018881;28;20041;-52
2020/12/09 11:32:15;;;;;;;10.70;2.28;;;19.70;99.90;;;;;;5035123;28;20429;-51
2020/12/09 11:34:43;;;;;;;9.98;2.10;;;19.70;99.90;;;;;;5053047;28;20492;-48
2020/12/09 11:37:11;;;;;;;8.73;1.95;;;19.70;99.90;;;;;;5053215;28;20366;-49
2020/12/09 11:39:39;;;;;;;13.20;1.90;;;19.70;99.90;;;;;;5052861;28;20021;-50
2020/12/09 11:42:09;;;;;;;8.82;1.80;;;19.70;99.90;;;;;;5052868;28;20021;-51
2020/12/09 11:44:37;;;;;;;9.93;2.03;;;19.60;99.90;;;;;;5052968;28;20438;-50
2020/12/09 11:47:05;;;;;;;8.23;1.80;;;19.60;99.90;;;;;;5052973;28;20020;-51
2020/12/09 11:49:33;;;;;;;7.38;1.60;;;19.60;99.90;;;;;;5052989;28;20052;-51
2020/12/09 11:52:01;;;;;;;7.43;1.65;;;19.60;99.90;;;;;;5053030;28;20020;-53
2020/12/09 11:54:29;;;;;;;7.43;1.98;;;19.60;99.90;;;;;;5052890;28;20104;-51
2020/12/09 11:57:00;;;;;;;12.75;1.85;;;19.50;99.90;;;;;;5052745;28;20029;-50
2020/12/09 11:59:29;;;;;;;9.45;1.98;;;19.50;99.90;;;;;;5052759;28;20025;-51
2020/12/09 12:01:57;;;;;;;9.35;2.10;;;19.50;99.90;;;;;;5053117;28;20036;-52
2020/12/09 12:04:25;;;;;;;8.27;1.92;;;19.50;99.90;;;;;;5052509;28;20044;-48
2020/12/09 12:06:53;;;;;;;9.75;2.13;;;19.50;99.90;;;;;;5018032;28;20508;-52
2020/12/09 12:09:21;;;;;;;14.15;2.88;;;19.50;99.90;;;;;;5051805;28;20099;-50
2020/12/09 12:11:49;;;;;;;6.72;1.63;;;19.50;99.90;;;;;;5052520;28;20028;-50
2020/12/09 12:14:17;;;;;;;10.45;1.75;;;19.40;99.90;;;;;;5052362;28;20021;-48
2020/12/09 12:16:46;;;;;;;9.90;2.55;;;19.40;99.90;;;;;;5052678;28;20086;-52
2020/12/09 12:19:17;;;;;;;12.77;2.60;;;19.40;99.90;;;;;;5052793;28;20067;-53
2020/12/09 12:21:47;;;;;;;5.97;1.75;;;19.30;99.90;;;;;;5052810;28;20653;-50
2020/12/09 12:24:16;;;;;;;9.02;2.45;;;19.30;99.90;;;;;;5052641;28;20480;-51
2020/12/09 12:26:44;;;;;;;9.55;2.10;;;19.30;99.90;;;;;;5052280;28;20052;-51
2020/12/09 12:29:12;;;;;;;8.52;2.22;;;19.20;99.90;;;;;;5052342;28;20017;-52
2020/12/09 12:31:40;;;;;;;6.95;1.95;;;19.20;99.90;;;;;;5052585;28;20036;-52
2020/12/09 12:34:07;;;;;;;9.05;2.35;;;19.10;99.90;;;;;;5052498;28;20025;-48
2020/12/09 12:36:36;;;;;;;5.72;1.90;;;19.10;99.90;;;;;;5052244;28;20116;-48
2020/12/09 12:39:04;;;;;;;9.98;2.05;;;19.10;99.90;;;;;;5052185;28;20032;-49
2020/12/09 12:41:32;;;;;;;8.50;2.25;;;19.10;99.90;;;;;;5052500;28;20037;-53
2020/12/09 12:44:00;;;;;;;10.68;2.05;;;19.00;99.90;;;;;;5052085;28;20465;-50
2020/12/09 12:46:28;;;;;;;7.78;1.90;;;19.00;99.90;;;;;;5052379;28;20155;-48
2020/12/09 12:48:56;;;;;;;8.77;2.13;;;19.00;99.90;;;;;;5017697;28;20432;-50
2020/12/09 12:51:24;;;;;;;8.43;1.90;;;18.90;99.90;;;;;;5052186;28;20028;-50
2020/12/09 12:53:52;;;;;;;5.93;1.48;;;18.90;99.90;;;;;;5052453;28;20029;-50
2020/12/09 12:56:22;;;;;;;6.93;1.80;;;18.90;99.90;;;;;;5034081;28;20036;-50
2020/12/09 12:58:51;;;;;;;6.18;1.85;;;18.90;99.90;;;;;;5052488;28;20057;-51
2020/12/09 13:01:19;;;;;;;9.68;2.50;;;18.80;99.90;;;;;;5052323;28;20057;-52
2020/12/09 13:03:47;;;;;;;9.93;2.08;;;18.80;99.90;;;;;;5034094;28;20116;-53